createdAt,value
2016-06-19T00:00:40.605Z,81.57
2016-06-19T00:01:40.640Z,81.76
2016-06-19T00:02:40.612Z,81.92
2016-06-19T00:03:40.647Z,82.01
2016-06-19T00:04:40.650Z,81.96
2016-06-19T00:05:40.623Z,81.57
2016-06-19T00:06:40.688Z,81.53
2016-06-19T00:07:40.630Z,81.92
2016-06-19T00:08:40.633Z,82.15
2016-06-19T00:09:40.667Z,81.76
2016-06-19T00:10:40.641Z,81.67
2016-06-19T00:11:40.674Z,81.57
2016-06-19T00:12:40.631Z,82.01
2016-06-19T00:13:40.666Z,82.34
2016-06-19T00:14:40.685Z,82.1
2016-06-19T00:15:40.658Z,81.57
2016-06-19T00:16:40.692Z,81.48
2016-06-19T00:17:40.695Z,81.72
2016-06-19T00:18:40.699Z,81.76
2016-06-19T00:19:40.624Z,81.28
2016-06-19T00:20:40.675Z,81.48
2016-06-19T00:21:40.679Z,81.76
2016-06-19T00:22:40.682Z,81.92
2016-06-19T00:23:40.716Z,81.48
2016-06-19T00:24:40.641Z,81.53
2016-06-19T00:25:40.629Z,81.53
2016-06-19T00:26:40.696Z,81.53
2016-06-19T00:27:40.699Z,81.48
2016-06-19T00:28:40.703Z,81.34
2016-06-19T00:29:40.705Z,81.48
2016-06-19T00:30:40.709Z,81.48
2016-06-19T00:31:40.682Z,81.38
2016-06-19T00:32:40.638Z,81.57
2016-06-19T00:33:40.673Z,81.28
2016-06-19T00:34:40.723Z,81.53
2016-06-19T00:35:40.727Z,81.48
2016-06-19T00:36:40.683Z,81.57
2016-06-19T00:37:40.703Z,81.57
2016-06-19T00:38:40.737Z,81.76
2016-06-19T00:39:40.709Z,81.57
2016-06-19T00:40:40.744Z,81.76
2016-06-19T00:41:40.747Z,81.76
2016-06-19T00:42:40.751Z,81.38
2016-06-19T00:43:40.724Z,81.67
2016-06-19T00:44:40.695Z,81.76
2016-06-19T00:45:40.762Z,81.76
2016-06-19T00:46:40.734Z,81.57
2016-06-19T00:47:40.721Z,81.76
2016-06-19T00:48:40.740Z,81.67
2016-06-19T00:49:40.712Z,81.86
2016-06-19T00:50:40.748Z,81.57
2016-06-19T00:51:40.719Z,81.57
2016-06-19T00:52:40.755Z,81.48
2016-06-19T00:53:40.648Z,81.86
2016-06-19T00:54:40.792Z,81.76
2016-06-19T00:55:40.764Z,81.67
2016-06-19T00:56:40.799Z,81.67
2016-06-19T00:57:40.756Z,81.38
2016-06-19T00:58:40.728Z,82.01
2016-06-19T00:59:40.810Z,82.2
2016-06-19T01:00:40.797Z,81.96
2016-06-19T01:01:40.754Z,81.92
2016-06-19T01:02:40.789Z,81.86
2016-06-19T01:03:40.761Z,81.86
2016-06-19T01:04:40.764Z,81.82
2016-06-19T01:05:40.767Z,81.82
2016-06-19T01:06:40.803Z,81.96
2016-06-19T01:07:40.790Z,81.86
2016-06-19T01:08:40.793Z,82.01
2016-06-19T01:09:40.813Z,81.96
2016-06-19T01:10:40.737Z,81.82
2016-06-19T01:11:40.741Z,81.76
2016-06-19T01:12:40.745Z,81.82
2016-06-19T01:13:40.748Z,82.01
2016-06-19T01:14:40.799Z,82.2
2016-06-19T01:15:40.771Z,82.01
2016-06-19T01:16:40.775Z,82.3
2016-06-19T01:17:40.809Z,82.49
2016-06-19T01:18:40.860Z,82.3
2016-06-19T01:19:40.832Z,82.3
2016-06-19T01:20:40.851Z,82.4
2016-06-19T01:21:40.776Z,82.1
2016-06-19T01:22:40.748Z,82.2
2016-06-19T01:23:40.767Z,82.01
2016-06-19T01:24:40.802Z,82.49
2016-06-19T01:25:40.790Z,82.3
2016-06-19T01:26:40.825Z,82.49
2016-06-19T01:27:40.797Z,81.72
2016-06-19T01:28:40.832Z,81.82
2016-06-19T01:29:40.819Z,81.92
2016-06-19T01:30:40.745Z,81.92
2016-06-19T01:31:40.827Z,82.01
2016-06-19T01:32:40.861Z,81.82
2016-06-19T01:33:40.864Z,82.1
2016-06-19T01:34:40.821Z,81.82
2016-06-19T01:35:40.856Z,81.67
2016-06-19T01:36:40.860Z,81.86
2016-06-19T01:37:40.816Z,81.82
2016-06-19T01:38:40.850Z,81.24
2016-06-19T01:39:40.588Z,82.01
2016-06-19T01:40:40.811Z,81.57
2016-06-19T01:41:40.783Z,81.53
2016-06-19T01:42:40.848Z,81.09
2016-06-19T01:43:40.868Z,80.99
2016-06-19T01:44:40.871Z,81.72
2016-06-19T01:45:41.641Z,80.96
2016-06-19T01:46:40.925Z,81.24
2016-06-19T01:47:40.787Z,81.24
2016-06-19T01:48:40.916Z,81.34
2016-06-19T01:49:40.842Z,81.43
2016-06-19T01:50:40.876Z,81.63
2016-06-19T01:51:40.879Z,81.43
2016-06-19T01:52:40.868Z,81.24
2016-06-19T01:53:40.856Z,81.43
2016-06-19T01:54:40.922Z,81.05
2016-06-19T01:55:40.835Z,80.76
2016-06-19T01:56:40.859Z,80.96
2016-06-19T01:57:40.897Z,80.96
2016-06-19T01:58:40.951Z,80.96
2016-06-19T01:59:40.910Z,80.96
2016-06-19T02:00:40.899Z,81.15
2016-06-19T02:01:40.904Z,80.96
2016-06-19T02:02:40.893Z,80.57
2016-06-19T02:03:40.977Z,80.38
2016-06-19T02:04:40.934Z,80.19
2016-06-19T02:05:40.922Z,80.09
2016-06-19T02:06:40.957Z,80.38
2016-06-19T02:07:40.993Z,80.47
2016-06-19T02:08:40.934Z,80.19
2016-06-19T02:09:40.891Z,80.42
2016-06-19T02:10:40.941Z,80.19
2016-06-19T02:11:40.914Z,80.51
2016-06-19T02:12:40.901Z,79.9
2016-06-19T02:13:40.920Z,79.94
2016-06-19T02:14:40.940Z,79.94
2016-06-19T02:15:40.975Z,79.75
2016-06-19T02:16:40.961Z,79.84
2016-06-19T02:17:40.996Z,80.09
2016-06-19T02:18:40.969Z,79.75
2016-06-19T02:19:40.973Z,79.46
2016-06-19T02:20:40.975Z,80.13
2016-06-19T02:21:40.964Z,79.94
2016-06-19T02:22:40.983Z,79.84
2016-06-19T02:23:40.955Z,79.65
2016-06-19T02:24:40.958Z,80.04
2016-06-19T02:25:40.993Z,79.94
2016-06-19T02:26:41.028Z,79.94
2016-06-19T02:27:41.000Z,79.75
2016-06-19T02:28:41.003Z,79.75
2016-06-19T02:29:40.960Z,79.75
2016-06-19T02:30:40.963Z,79.61
2016-06-19T02:31:41.014Z,79.75
2016-06-19T02:32:40.986Z,79.94
2016-06-19T02:33:40.959Z,79.84
2016-06-19T02:34:41.055Z,79.99
2016-06-19T02:35:40.966Z,79.9
2016-06-19T02:36:41.062Z,79.84
2016-06-19T02:37:41.034Z,79.71
2016-06-19T02:38:41.038Z,79.71
2016-06-19T02:39:41.057Z,79.71
2016-06-19T02:40:41.044Z,79.9
2016-06-19T02:41:41.017Z,79.42
2016-06-19T02:42:41.083Z,79.9
2016-06-19T02:43:41.040Z,79.71
2016-06-19T02:44:41.044Z,79.9
2016-06-19T02:45:41.062Z,79.9
2016-06-19T02:46:41.096Z,79.71
2016-06-19T02:47:41.054Z,79.9
2016-06-19T02:48:41.026Z,79.8
2016-06-19T02:49:40.997Z,79.52
2016-06-19T02:50:41.079Z,79.17
2016-06-19T02:51:41.068Z,79.42
2016-06-19T02:52:41.087Z,78.84
2016-06-19T02:53:41.011Z,79.52
2016-06-19T02:54:40.968Z,79.13
2016-06-19T02:55:41.050Z,79.03
2016-06-19T02:56:41.085Z,78.98
2016-06-19T02:57:41.072Z,79.03
2016-06-19T02:58:41.107Z,78.3
2016-06-19T02:59:41.080Z,78.27
2016-06-19T03:00:41.083Z,78.4
2016-06-19T03:01:41.086Z,78.5
2016-06-19T03:02:41.043Z,78.5
2016-06-19T03:03:41.046Z,78.5
2016-06-19T03:04:41.050Z,78.5
2016-06-19T03:05:41.131Z,78.59
2016-06-19T03:06:41.026Z,78.11
2016-06-19T03:07:41.091Z,78.5
2016-06-19T03:08:41.080Z,78.5
2016-06-19T03:09:41.098Z,77.92
2016-06-19T03:10:41.133Z,77.73
2016-06-19T03:11:41.043Z,77.63
2016-06-19T03:12:41.046Z,77.69
2016-06-19T03:13:41.128Z,78.02
2016-06-19T03:14:41.085Z,77.78
2016-06-19T03:15:41.135Z,78.11
2016-06-19T03:16:41.138Z,77.98
2016-06-19T03:17:41.095Z,78.55
2016-06-19T03:18:41.115Z,78.3
2016-06-19T03:19:41.101Z,78.17
2016-06-19T03:20:41.136Z,78.11
2016-06-19T03:21:41.156Z,77.78
2016-06-19T03:22:41.143Z,78.3
2016-06-19T03:23:41.146Z,78.45
2016-06-19T03:24:41.166Z,78.55
2016-06-19T03:25:41.123Z,77.88
2016-06-19T03:26:41.079Z,78.11
2016-06-19T03:27:41.176Z,78.17
2016-06-19T03:28:41.133Z,77.98
2016-06-19T03:29:41.105Z,78.11
2016-06-19T03:30:41.109Z,78.27
2016-06-19T03:31:41.127Z,77.98
2016-06-19T03:32:41.146Z,78.11
2016-06-19T03:33:41.150Z,77.83
2016-06-19T03:34:41.123Z,77.92
2016-06-19T03:35:41.126Z,77.78
2016-06-19T03:36:41.160Z,77.98
2016-06-19T03:37:41.133Z,78.08
2016-06-19T03:38:41.136Z,78.11
2016-06-19T03:39:41.140Z,78.08
2016-06-19T03:40:41.127Z,78.08
2016-06-19T03:41:41.147Z,78.45
2016-06-19T03:42:41.119Z,78.65
2016-06-19T03:43:41.169Z,78.45
2016-06-19T03:44:41.204Z,78.45
2016-06-19T03:45:41.191Z,78.17
2016-06-19T03:46:41.195Z,78.65
2016-06-19T03:47:41.168Z,78.65
2016-06-19T03:48:41.139Z,78.65
2016-06-19T03:49:41.159Z,78.75
2016-06-19T03:50:41.147Z,78.65
2016-06-19T03:51:41.150Z,79.03
2016-06-19T03:52:41.184Z,79.03
2016-06-19T03:53:41.189Z,79.03
2016-06-19T03:54:41.192Z,78.94
2016-06-19T03:55:41.226Z,79.03
2016-06-19T03:56:41.230Z,78.75
2016-06-19T03:57:41.233Z,79.13
2016-06-19T03:58:41.237Z,79.03
2016-06-19T03:59:41.240Z,79.13
2016-06-19T04:00:41.197Z,78.45
2016-06-19T04:01:41.216Z,78.84
2016-06-19T04:02:41.250Z,79.22
2016-06-19T04:03:41.176Z,79.22
2016-06-19T04:04:41.210Z,78.94
2016-06-19T04:05:41.214Z,79.03
2016-06-19T04:06:41.217Z,79.13
2016-06-19T04:07:41.159Z,79.03
2016-06-19T04:08:41.271Z,79.52
2016-06-19T04:09:41.228Z,79.22
2016-06-19T04:10:41.200Z,79.13
2016-06-19T04:11:41.251Z,79.13
2016-06-19T04:12:41.225Z,79.32
2016-06-19T04:13:41.184Z,79.13
2016-06-19T04:14:41.188Z,79.13
2016-06-19T04:15:41.240Z,79.52
2016-06-19T04:16:41.276Z,79.52
2016-06-19T04:17:41.295Z,79.13
2016-06-19T04:18:41.285Z,79.52
2016-06-19T04:19:41.319Z,79.03
2016-06-19T04:20:41.277Z,78.84
2016-06-19T04:21:41.266Z,79.22
2016-06-19T04:22:41.269Z,79.13
2016-06-19T04:23:41.303Z,79.22
2016-06-19T04:24:41.291Z,78.94
2016-06-19T04:25:41.311Z,79.32
2016-06-19T04:26:41.283Z,79.32
2016-06-19T04:27:41.317Z,79.13
2016-06-19T04:28:41.290Z,79.13
2016-06-19T04:29:41.324Z,78.94
2016-06-19T04:30:41.328Z,79.22
2016-06-19T04:31:41.300Z,78.94
2016-06-19T04:32:41.271Z,79.03
2016-06-19T04:33:41.275Z,78.94
2016-06-19T04:34:41.295Z,78.94
2016-06-19T04:35:41.314Z,78.84
2016-06-19T04:36:41.348Z,78.84
2016-06-19T04:37:41.289Z,78.84
2016-06-19T04:38:41.356Z,79.13
2016-06-19T04:39:41.311Z,79.22
2016-06-19T04:40:41.346Z,79.13
2016-06-19T04:41:41.335Z,79.22
2016-06-19T04:42:41.369Z,78.84
2016-06-19T04:43:41.357Z,78.94
2016-06-19T04:44:41.299Z,78.55
2016-06-19T04:45:41.301Z,78.94
2016-06-19T04:46:41.305Z,78.84
2016-06-19T04:47:41.324Z,78.75
2016-06-19T04:48:41.390Z,78.45
2016-06-19T04:49:41.362Z,78.94
2016-06-19T04:50:41.366Z,79.22
2016-06-19T04:51:42.290Z,79.03
2016-06-19T04:52:41.373Z,78.94
2016-06-19T04:53:41.376Z,78.84
2016-06-19T04:54:41.379Z,79.13
2016-06-19T04:55:41.383Z,78.75
2016-06-19T04:56:41.387Z,79.03
2016-06-19T04:57:41.390Z,78.27
2016-06-19T04:58:41.393Z,78.55
2016-06-19T04:59:41.350Z,78.65
2016-06-19T05:00:41.400Z,78.17
2016-06-19T05:01:41.357Z,78.21
2016-06-19T05:02:41.408Z,78.08
2016-06-19T05:03:41.442Z,78.21
2016-06-19T05:04:41.304Z,78.3
2016-06-19T05:05:41.371Z,78.45
2016-06-19T05:06:41.421Z,78.4
2016-06-19T05:07:41.378Z,78.59
2016-06-19T05:08:41.412Z,78.17
2016-06-19T05:09:41.352Z,78.4
2016-06-19T05:10:41.372Z,77.92
2016-06-19T05:11:41.392Z,78.5
2016-06-19T05:16:12.721Z,78.27
2016-06-19T05:17:12.740Z,77.88
2016-06-19T05:18:12.713Z,78.11
2016-06-19T05:19:12.716Z,78.11
2016-06-19T05:20:12.719Z,78.21
2016-06-19T05:21:12.676Z,78.4
2016-06-19T05:22:12.695Z,77.83
2016-06-19T05:23:12.683Z,77.83
2016-06-19T05:24:12.687Z,77.83
2016-06-19T05:25:12.737Z,77.92
2016-06-19T05:26:12.693Z,77.92
2016-06-19T05:27:12.775Z,77.83
2016-06-19T05:28:12.778Z,78.02
2016-06-19T05:29:12.766Z,77.63
2016-06-19T05:30:12.769Z,77.92
2016-06-19T05:31:12.725Z,78.02
2016-06-19T05:32:12.762Z,78.11
2016-06-19T05:33:12.670Z,77.83
2016-06-19T05:34:12.736Z,77.92
2016-06-19T05:35:12.787Z,77.63
2016-06-19T05:36:12.775Z,78.02
2016-06-19T05:37:12.700Z,77.83
2016-06-19T05:38:12.812Z,77.73
2016-06-19T05:39:12.816Z,77.73
2016-06-19T05:40:12.820Z,77.83
2016-06-19T05:41:12.793Z,77.92
2016-06-19T05:42:12.826Z,77.92
2016-06-19T05:43:12.800Z,77.92
2016-06-19T05:44:12.817Z,77.73
2016-06-19T05:45:12.774Z,78.11
2016-06-19T05:46:12.777Z,77.83
2016-06-19T05:47:12.781Z,78.11
2016-06-19T05:48:12.770Z,77.73
2016-06-19T05:49:12.850Z,77.92
2016-06-19T05:50:12.807Z,77.92
2016-06-19T05:51:12.827Z,77.83
2016-06-19T05:52:12.831Z,78.02
2016-06-19T05:53:12.754Z,77.92
2016-06-19T05:54:12.759Z,78.02
2016-06-19T05:55:12.808Z,77.83
2016-06-19T05:56:12.812Z,78.11
2016-06-19T05:57:12.832Z,77.83
2016-06-19T05:58:12.804Z,77.92
2016-06-19T05:59:12.823Z,78.02
2016-06-19T06:00:12.810Z,78.11
2016-06-19T06:01:12.767Z,77.92
2016-06-19T06:02:12.740Z,77.92
2016-06-19T06:03:12.868Z,77.92
2016-06-19T06:04:12.917Z,77.34
2016-06-19T06:05:12.828Z,77.53
2016-06-19T06:06:12.799Z,77.63
2016-06-19T06:07:12.803Z,77.44
2016-06-19T06:08:12.823Z,77.34
2016-06-19T06:09:12.842Z,77.44
2016-06-19T06:10:12.860Z,77.34
2016-06-19T06:11:12.817Z,77.63
2016-06-19T06:12:12.790Z,77.63
2016-06-19T06:13:12.856Z,77.25
2016-06-19T06:14:12.860Z,77.25
2016-06-19T06:15:12.925Z,77.53
2016-06-19T06:16:12.819Z,76.96
2016-06-19T06:17:12.838Z,77.15
2016-06-19T06:18:12.888Z,76.96
2016-06-19T06:19:12.860Z,77.25
2016-06-19T06:20:12.880Z,77.34
2016-06-19T06:21:12.836Z,76.96
2016-06-19T06:22:12.855Z,77.15
2016-06-19T06:23:12.905Z,76.86
2016-06-19T06:24:12.894Z,76.39
2016-06-19T06:25:12.866Z,76.67
2016-06-19T06:26:12.837Z,76.77
2016-06-19T06:27:12.872Z,76.96
2016-06-19T06:28:12.851Z,76.67
2016-06-19T06:29:12.876Z,76.67
2016-06-19T06:30:12.933Z,76.96
2016-06-19T06:31:12.926Z,76.67
2016-06-19T06:32:12.918Z,77.06
2016-06-19T06:33:12.956Z,76.67
2016-06-19T06:34:12.962Z,76.86
2016-06-19T06:35:12.905Z,77.06
2016-06-19T06:36:12.989Z,76.57
2016-06-19T06:37:12.916Z,76.67
2016-06-19T06:38:12.905Z,76.39
2016-06-19T06:39:12.847Z,76.86
2016-06-19T06:40:12.960Z,76.96
2016-06-19T06:41:12.855Z,76.86
2016-06-19T06:42:12.969Z,76.57
2016-06-19T06:43:12.971Z,76.61
2016-06-19T06:44:12.960Z,76.42
2016-06-19T06:45:12.916Z,76.19
2016-06-19T06:46:12.937Z,76.09
2016-06-19T06:47:12.955Z,76.19
2016-06-19T06:48:12.927Z,76
2016-06-19T06:49:12.931Z,76.29
2016-06-19T06:50:12.934Z,76.19
2016-06-19T06:51:12.968Z,76.29
2016-06-19T06:52:12.972Z,75.42
2016-06-19T06:53:12.975Z,75.56
2016-06-19T06:54:12.964Z,75.52
2016-06-19T06:55:12.951Z,75.46
2016-06-19T06:56:12.955Z,75.37
2016-06-19T06:57:12.989Z,75.32
2016-06-19T06:58:12.993Z,75.65
2016-06-19T06:59:12.981Z,75.75
2016-06-19T07:00:13.000Z,75.37
2016-06-19T07:01:13.003Z,75.37
2016-06-19T07:02:13.006Z,75.37
2016-06-19T07:03:13.026Z,75.17
2016-06-19T07:04:12.982Z,75.17
2016-06-19T07:05:12.986Z,75.07
2016-06-19T07:06:12.958Z,75.07
2016-06-19T07:07:13.118Z,74.98
2016-06-19T07:08:13.059Z,75.27
2016-06-19T07:09:12.999Z,75.07
2016-06-19T07:10:12.987Z,74.79
2016-06-19T07:11:13.037Z,74.5
2016-06-19T07:12:12.994Z,74.6
2016-06-19T07:13:12.967Z,75.07
2016-06-19T07:14:13.017Z,74.98
2016-06-19T07:15:13.051Z,75.07
2016-06-19T07:16:13.023Z,75.17
2016-06-19T07:17:13.043Z,75.07
2016-06-19T07:18:13.047Z,74.88
2016-06-19T07:19:13.034Z,74.69
2016-06-19T07:20:13.038Z,74.4
2016-06-19T07:21:13.026Z,74.5
2016-06-19T07:22:13.028Z,74.21
2016-06-19T07:23:13.079Z,74.21
2016-06-19T07:24:13.082Z,73.73
2016-06-19T07:25:13.086Z,73.83
2016-06-19T07:26:13.074Z,74.5
2016-06-19T07:27:13.093Z,74.21
2016-06-19T07:28:13.019Z,74.5
2016-06-19T07:29:13.068Z,74.21
2016-06-19T07:30:13.088Z,73.63
2016-06-19T07:31:13.076Z,74.11
2016-06-19T07:32:13.016Z,73.83
2016-06-19T07:33:13.052Z,73.54
2016-06-19T07:34:13.102Z,73.63
2016-06-19T07:35:13.074Z,73.83
2016-06-19T07:36:13.999Z,73.63
2016-06-19T07:37:13.065Z,73.63
2016-06-19T07:38:13.053Z,74.11
2016-06-19T07:39:13.025Z,73.92
2016-06-19T07:40:13.107Z,73.44
2016-06-19T07:41:13.063Z,73.44
2016-06-19T07:42:13.083Z,73.83
2016-06-19T07:43:13.133Z,73.63
2016-06-19T07:44:13.073Z,72.58
2016-06-19T07:45:13.093Z,72.86
2016-06-19T07:46:13.050Z,72.52
2016-06-19T07:47:13.131Z,72.9
2016-06-19T07:48:13.072Z,73.47
2016-06-19T07:49:13.044Z,73.09
2016-06-19T07:50:13.078Z,73.38
2016-06-19T07:51:13.128Z,72.8
2016-06-19T07:52:13.101Z,72.61
2016-06-19T07:53:13.136Z,72.42
2016-06-19T07:54:13.077Z,72.13
2016-06-19T07:55:13.081Z,72.42
2016-06-19T07:56:13.131Z,72.38
2016-06-19T07:57:13.088Z,72.23
2016-06-19T07:58:13.138Z,72.32
2016-06-19T07:59:13.142Z,72.23
2016-06-19T08:00:13.129Z,72.23
2016-06-19T08:01:13.101Z,72.13
2016-06-19T08:02:13.105Z,71.94
2016-06-19T08:03:13.170Z,72.32
2016-06-19T08:04:13.159Z,72.32
2016-06-19T08:05:13.146Z,72.23
2016-06-19T08:06:13.056Z,72.13
2016-06-19T08:07:13.123Z,72.32
2016-06-19T08:08:13.078Z,72.32
2016-06-19T08:09:13.161Z,72.03
2016-06-19T08:10:13.116Z,72.42
2016-06-19T08:11:13.136Z,71.65
2016-06-19T08:12:13.170Z,72.48
2016-06-19T08:13:13.158Z,72.52
2016-06-19T08:14:13.147Z,72.23
2016-06-19T08:15:13.087Z,72.42
2016-06-19T08:16:13.123Z,72.03
2016-06-19T08:17:13.187Z,72.13
2016-06-19T08:18:13.160Z,72.52
2016-06-19T08:19:13.164Z,72.03
2016-06-19T08:20:13.198Z,72.13
2016-06-19T08:21:13.171Z,72.23
2016-06-19T08:22:13.158Z,72.42
2016-06-19T08:23:13.225Z,72.32
2016-06-19T08:24:13.150Z,71.75
2016-06-19T08:25:13.184Z,72.03
2016-06-19T08:26:13.188Z,71.65
2016-06-19T08:27:13.191Z,71.46
2016-06-19T08:28:13.226Z,71.94
2016-06-19T08:29:13.151Z,71.71
2016-06-19T08:30:13.186Z,72.09
2016-06-19T08:31:13.205Z,71.65
2016-06-19T08:32:13.193Z,72.03
2016-06-19T08:33:13.181Z,72.23
2016-06-19T08:34:13.200Z,72.03
2016-06-19T08:35:13.250Z,72.13
2016-06-19T08:36:13.175Z,72.42
2016-06-19T08:37:13.179Z,71.84
2016-06-19T08:38:13.229Z,71.55
2016-06-19T08:39:13.264Z,71.84
2016-06-19T08:40:13.206Z,71.84
2016-06-19T08:41:13.193Z,71.65
2016-06-19T08:42:13.243Z,71.36
2016-06-19T08:43:13.199Z,71.26
2016-06-19T08:44:13.189Z,71.46
2016-06-19T08:45:13.243Z,71.55
2016-06-19T08:46:13.296Z,70.59
2016-06-19T08:47:13.224Z,70.98
2016-06-19T08:48:13.214Z,70.5
2016-06-19T08:49:13.251Z,70.78
2016-06-19T08:50:13.270Z,70.68
2016-06-19T08:51:13.260Z,70.78
2016-06-19T08:52:13.326Z,70.98
2016-06-19T08:57:28.971Z,70.78
2016-06-19T08:57:45.487Z,70.68
2016-06-19T08:58:45.414Z,70.68
2016-06-19T08:59:45.510Z,69.92
2016-06-19T09:00:45.483Z,70.01
2016-06-19T09:01:46.470Z,70.3
2016-06-19T09:02:45.506Z,70.5
2016-06-19T09:03:45.477Z,70.5
2016-06-19T09:04:45.559Z,70.68
2016-06-19T09:05:45.484Z,70.88
2016-06-19T09:06:45.487Z,70.78
2016-06-19T09:07:45.491Z,70.68
2016-06-19T09:08:45.494Z,69.92
2016-06-19T09:09:45.514Z,70.3
2016-06-19T09:10:45.486Z,69.63
2016-06-19T09:11:45.473Z,69.92
2016-06-19T09:12:45.508Z,69.53
2016-06-19T09:13:45.449Z,69.92
2016-06-19T09:14:45.469Z,70.4
2016-06-19T09:15:45.550Z,70.11
2016-06-19T09:16:45.522Z,70.4
2016-06-19T09:17:46.839Z,70.68
2016-06-19T09:18:45.561Z,70.4
2016-06-19T09:19:45.518Z,70.4
2016-06-19T09:20:45.536Z,70.68
2016-06-19T09:21:45.540Z,70.78
2016-06-19T09:22:45.542Z,70.78
2016-06-19T09:23:45.546Z,70.4
2016-06-19T09:24:45.534Z,70.88
2016-06-19T09:25:45.553Z,70.5
2016-06-19T09:26:45.557Z,70.78
2016-06-19T09:27:45.560Z,70.59
2016-06-19T09:28:45.564Z,70.98
2016-06-19T09:29:45.535Z,70.88
2016-06-19T09:30:45.570Z,70.5
2016-06-19T09:31:45.574Z,70.78
2016-06-19T09:32:45.547Z,71.08
2016-06-19T09:33:46.441Z,71.36
2016-06-19T09:34:45.554Z,70.78
2016-06-19T09:35:45.541Z,70.98
2016-06-19T09:36:45.560Z,70.68
2016-06-19T09:37:45.594Z,70.5
2016-06-19T09:38:45.536Z,70.78
2016-06-19T09:39:45.571Z,70.78
2016-06-19T09:40:45.604Z,70.88
2016-06-19T09:41:45.546Z,71.11
2016-06-19T09:42:45.581Z,70.78
2016-06-19T09:43:45.631Z,70.98
2016-06-19T09:44:45.541Z,70.05
2016-06-19T09:45:45.591Z,70.53
2016-06-19T09:46:45.548Z,70.59
2016-06-19T09:47:45.567Z,70.72
2016-06-19T09:48:45.523Z,71.01
2016-06-19T09:49:46.527Z,71.01
2016-06-19T09:50:45.608Z,71.17
2016-06-19T09:51:45.612Z,70.92
2016-06-19T09:52:45.616Z,70.82
2016-06-19T09:53:45.619Z,70.62
2016-06-19T09:54:45.622Z,70.82
2016-06-19T09:55:45.642Z,70.53
2016-06-19T09:56:45.629Z,70.92
2016-06-19T09:57:45.602Z,71.2
2016-06-19T09:58:45.636Z,70.82
2016-06-19T09:59:45.640Z,71.01
2016-06-19T10:00:45.612Z,70.82
2016-06-19T10:01:45.693Z,70.62
2016-06-19T10:02:45.619Z,70.62
2016-06-19T10:03:45.654Z,70.43
2016-06-19T10:04:45.657Z,70.82
2016-06-19T10:05:46.629Z,70.34
2016-06-19T10:06:45.633Z,70.15
2016-06-19T10:07:45.667Z,70.34
2016-06-19T10:08:45.656Z,70.62
2016-06-19T10:09:45.674Z,70.43
2016-06-19T10:10:45.600Z,70.62
2016-06-19T10:11:45.681Z,71.01
2016-06-19T10:12:45.669Z,70.82
2016-06-19T10:13:45.610Z,69.95
2016-06-19T10:14:45.613Z,70.34
2016-06-19T10:15:45.664Z,70.53
2016-06-19T10:16:45.620Z,69.85
2016-06-19T10:17:45.687Z,69.85
2016-06-19T10:18:45.627Z,69.67
2016-06-19T10:19:45.631Z,69.85
2016-06-19T10:20:45.681Z,69.85
2016-06-19T10:21:46.497Z,69.28
2016-06-19T10:22:45.657Z,69.38
2016-06-19T10:23:45.692Z,69.28
2016-06-19T10:24:45.695Z,69.38
2016-06-19T10:25:45.698Z,69.67
2016-06-19T10:26:45.655Z,69.95
2016-06-19T10:27:45.705Z,69.76
2016-06-19T10:28:45.709Z,69.85
2016-06-19T10:29:45.665Z,69.85
2016-06-19T10:30:45.638Z,69.38
2016-06-19T10:31:45.673Z,69.76
2016-06-19T10:32:45.676Z,69.85
2016-06-19T10:33:45.633Z,69.28
2016-06-19T10:34:45.730Z,69.76
2016-06-19T10:35:45.717Z,69.67
2016-06-19T10:36:45.737Z,69.57
2016-06-19T10:37:46.802Z,69.85
2016-06-19T10:38:45.665Z,69.67
2016-06-19T10:39:45.747Z,69.47
2016-06-19T10:40:45.750Z,69.85
2016-06-19T10:41:45.676Z,69.85
2016-06-19T10:42:45.758Z,70.34
2016-06-19T10:43:45.761Z,70.24
2016-06-19T10:44:45.718Z,70.24
2016-06-19T10:45:45.720Z,70.24
2016-06-19T10:46:45.693Z,69.95
2016-06-19T10:47:45.696Z,69.95
2016-06-19T10:48:45.731Z,70.15
2016-06-19T10:49:45.688Z,70.05
2016-06-19T10:50:45.738Z,70.15
2016-06-19T10:51:45.789Z,70.15
2016-06-19T10:52:45.791Z,70.43
2016-06-19T10:53:46.608Z,69.95
2016-06-19T10:54:45.752Z,70.24
2016-06-19T10:55:45.818Z,70.05
2016-06-19T10:56:45.758Z,70.24
2016-06-19T10:57:45.762Z,70.24
2016-06-19T10:58:45.735Z,70.05
2016-06-19T10:59:45.769Z,69.95
2016-06-19T11:00:45.757Z,69.85
2016-06-19T11:01:45.778Z,69.76
2016-06-19T11:02:45.736Z,70.43
2016-06-19T11:03:45.788Z,70.34
2016-06-19T11:04:45.840Z,70.05
2016-06-19T11:05:45.797Z,70.24
2016-06-19T11:06:45.770Z,69.85
2016-06-19T11:07:45.743Z,69.76
2016-06-19T11:08:45.778Z,70.05
2016-06-19T11:09:46.657Z,69.95
2016-06-19T11:10:45.817Z,70.18
2016-06-19T11:11:45.821Z,70.05
2016-06-19T11:12:45.794Z,70.24
2016-06-19T11:13:45.828Z,69.95
2016-06-19T11:14:45.833Z,70.53
2016-06-19T11:15:45.805Z,70.92
2016-06-19T11:16:45.808Z,70.34
2016-06-19T11:17:45.843Z,70.34
2016-06-19T11:18:45.846Z,70.28
2016-06-19T11:19:45.850Z,70.82
2016-06-19T11:20:45.822Z,70.76
2016-06-19T11:21:45.810Z,70.86
2016-06-19T11:22:45.782Z,70.76
2016-06-19T11:23:45.833Z,70.86
2016-06-19T11:24:45.867Z,70.66
2016-06-19T11:25:46.729Z,71.04
2016-06-19T11:26:45.843Z,69.89
2016-06-19T11:27:45.878Z,69.79
2016-06-19T11:28:45.819Z,70.47
2016-06-19T11:29:45.775Z,69.7
2016-06-19T11:30:45.857Z,69.89
2016-06-19T11:31:45.844Z,69.89
2016-06-19T11:32:45.864Z,68.93
2016-06-19T11:33:45.867Z,69.12
2016-06-19T11:34:45.870Z,68.93
2016-06-19T11:35:45.905Z,69.51
2016-06-19T11:36:45.861Z,69.51
2016-06-19T11:37:45.881Z,69.73
2016-06-19T11:38:45.884Z,68.84
2016-06-19T11:39:45.888Z,68.96
2016-06-19T11:40:45.875Z,68.16
2016-06-19T11:41:46.706Z,68.35
2016-06-19T11:42:45.899Z,68.77
2016-06-19T11:43:45.886Z,68.96
2016-06-19T11:46:06.768Z,68.77
2016-06-19T11:47:06.802Z,68.84
2016-06-19T11:48:06.713Z,68.38
2016-06-19T11:49:06.731Z,68.68
2016-06-19T11:50:06.797Z,68.87
2016-06-19T11:51:06.785Z,68.87
2016-06-19T11:52:06.773Z,68.77
2016-06-19T11:53:06.822Z,68.19
2016-06-19T11:54:06.796Z,67.42
2016-06-19T11:55:06.830Z,67.03
2016-06-19T11:56:06.819Z,66.85
2016-06-19T11:57:06.806Z,67.23
2016-06-19T11:58:06.763Z,67.42
2016-06-19T11:59:06.812Z,67.81
2016-06-19T12:00:06.769Z,67.71
2016-06-19T12:01:06.773Z,67.81
2016-06-19T12:02:06.808Z,67.52
2016-06-19T12:03:06.826Z,67.81
2016-06-19T12:04:06.830Z,66.75
2016-06-19T12:05:06.865Z,66.65
2016-06-19T12:06:06.775Z,66.85
2016-06-19T12:07:06.778Z,66.75
2016-06-19T12:08:06.844Z,66.65
2016-06-19T12:09:06.817Z,66.65
2016-06-19T12:10:06.803Z,66.55
2016-06-19T12:11:06.792Z,66.46
2016-06-19T12:12:06.857Z,66.17
2016-06-19T12:13:06.815Z,66.39
2016-06-19T12:14:06.850Z,66.36
2016-06-19T12:15:06.821Z,66.11
2016-06-19T12:16:06.793Z,65.91
2016-06-19T12:17:06.860Z,66.01
2016-06-19T12:18:06.831Z,65.53
2016-06-19T12:19:06.820Z,66.3
2016-06-19T12:20:06.870Z,65.72
2016-06-19T12:21:06.780Z,65.91
2016-06-19T12:22:06.815Z,66.11
2016-06-19T12:23:06.864Z,66.3
2016-06-19T12:24:06.852Z,66.59
2016-06-19T12:25:06.872Z,66.49
2016-06-19T12:26:06.828Z,66.49
2016-06-19T12:27:06.832Z,66.11
2016-06-19T12:28:06.804Z,65.91
2016-06-19T12:29:06.885Z,65.81
2016-06-19T12:30:06.873Z,66.01
2016-06-19T12:31:06.846Z,66.01
2016-06-19T12:32:06.848Z,65.72
2016-06-19T12:33:06.883Z,65.72
2016-06-19T12:34:06.825Z,65.53
2016-06-19T12:35:06.890Z,65.62
2016-06-19T12:36:06.893Z,65.53
2016-06-19T12:37:06.866Z,65.72
2016-06-19T12:38:06.900Z,66.01
2016-06-19T12:39:06.905Z,65.81
2016-06-19T12:40:06.892Z,65.81
2016-06-19T12:41:06.864Z,64.98
2016-06-19T12:42:06.931Z,65.14
2016-06-19T12:43:06.887Z,65.05
2016-06-19T12:44:06.891Z,65.24
2016-06-19T12:45:06.925Z,65.05
2016-06-19T12:46:06.914Z,64.98
2016-06-19T12:47:06.900Z,65.17
2016-06-19T12:48:06.888Z,65.17
2016-06-19T12:49:06.924Z,65.27
2016-06-19T12:50:06.911Z,65.27
2016-06-19T12:51:06.898Z,65.08
2016-06-19T12:52:06.996Z,65.27
2016-06-19T12:53:06.921Z,65.27
2016-06-19T12:54:06.925Z,64.98
2016-06-19T12:55:06.898Z,65.08
2016-06-19T12:56:06.901Z,65.08
2016-06-19T12:57:06.936Z,64.79
2016-06-19T12:58:06.923Z,65.37
2016-06-19T12:59:06.974Z,65.56
2016-06-19T13:00:06.945Z,65.17
2016-06-19T13:01:06.887Z,65.47
2016-06-19T13:02:06.953Z,64.79
2016-06-19T13:03:06.956Z,64.89